Main page
METAR-TAF:

METAR-TAF

Airports :

Salamanca Airport

Salamanca, Spain

latitude: 40-57N, longitude: 005-30W, elevation: 793 m

Current weather observation

The report was made 34 minutes ago, at 08:30 UTC
Wind 3 kt from the Northeast, varying between North/Northwest and East/Southeast
Temperature 17°C
Humidity 68%
Pressure 1020 hPa
Visibility 10 km or more
no clouds below 1500 m and no cumulonimbus

METAR: LESA 150830Z 04003KT 340V120 CAVOK 17/11 Q1020

Time: 11:04 (09:04 UTC)

Forecast

The report was made 4 hours and 4 minutes ago, at 05:00 UTC
Forecast valid from 15 at 06 UTC to 16 at 06 UTC
Wind 5 kt from the Northeast
Visibility 10 km or more
no clouds below 1500 m and no cumulonimbus
Probability 30% :
Temporary
from 15 at 16 UTC to 15 at 19 UTC
Few clouds at a height of 4000 ft, Towering cumulus.

TAF: LESA 150500Z 1506/1606 04005KT CAVOK TX32/1515Z TN10/1506Z PROB30 TEMPO 1516/1519 FEW040TCU

Weather observations and forecasts of more than 4000 airports (METAR and TAF reports).

The available stations are represented by yellow and red dots on the map.

Hover mouse over dot to see the name of the station.

Then click to see weather observations and forecasts.

To change the map : click on the green buttons with a black cross to zoom in, on the green button with a dash to zoom out, or on the green arrows for adjacent maps.


METAR-TAF: